This is the latest recevied weather packets stored in our database for station/object N2RDT. If no packets are shown the sender has not sent any weather packets the latest 10 day(s).
| Time | Temp. | Humidity | Pressure | Rain* | Wind** | Luminosity | Snow |
|---|---|---|---|---|---|---|---|
| 1777839936 | 19.44° C | 29% | 1016.9 hPa | 0 mm | - | 650 W/m² | - |
| 1777839633 | 18.89° C | 29% | 1016.7 hPa | 0 mm | - | 665 W/m² | - |
| 1777839331 | 18.33° C | 32% | 1017.1 hPa | 0 mm | - | 682 W/m² | - |
| 1777839028 | 18.89° C | 30% | 1017.1 hPa | 0 mm | - | 699 W/m² | - |
| 1777838724 | 18.89° C | 30% | 1017.2 hPa | 0 mm | - | 715 W/m² | - |
| 1777838421 | 17.78° C | 30% | 1017.2 hPa | 0 mm | - | 731 W/m² | - |
| 1777838119 | 17.78° C | 30% | 1017.3 hPa | 0 mm | - | 747 W/m² | - |
| 1777837815 | 18.33° C | 30% | 1017.5 hPa | 0 mm | - | 759 W/m² | - |
| 1777837513 | 18.33° C | 32% | 1017.4 hPa | 0 mm | - | 773 W/m² | - |
| 1777837212 | 18.89° C | 30% | 1017.2 hPa | 0 mm | - | 785 W/m² | - |
| 1777836909 | 17.78° C | 35% | 1017.4 hPa | 0 mm | - | 798 W/m² | - |
| 1777836604 | 17.78° C | 33% | 1017.4 hPa | 0 mm | - | 811 W/m² | - |
| 1777836300 | 17.78° C | 30% | 1017.7 hPa | 0 mm | - | 823 W/m² | - |
| 1777835995 | 17.22° C | 31% | 1017.6 hPa | 0 mm | - | 833 W/m² | - |
| 1777835694 | 17.22° C | 30% | 1017.9 hPa | 0 mm | - | 845 W/m² | - |
| 1777835389 | 17.78° C | 30% | 1017.8 hPa | 0 mm | - | 855 W/m² | - |
| 1777835087 | 17.22° C | 32% | 1017.9 hPa | 0 mm | - | 863 W/m² | - |
| 1777834784 | 17.78° C | 32% | 1017.7 hPa | 0 mm | - | 873 W/m² | - |
| 1777834480 | 17.78° C | 30% | 1017.9 hPa | 0 mm | - | 882 W/m² | - |
| 1777834180 | 17.22° C | 31% | 1017.9 hPa | 0 mm | - | 891 W/m² | - |
| 1777833877 | 17.22° C | 31% | 1018 hPa | 0 mm | - | 898 W/m² | - |
| 1777833573 | 17.22° C | 30% | 1018 hPa | 0 mm | - | 906 W/m² | - |
| 1777833270 | 17.78° C | 30% | 1018 hPa | 0 mm | - | 914 W/m² | - |
| 1777832967 | 17.22° C | 32% | 1018.1 hPa | 0 mm | - | 921 W/m² | - |
| 1777832666 | 17.22° C | 32% | 1018.2 hPa | 0 mm | - | 929 W/m² | - |
* Rain latest hour (hover to see other rain measurements)
** Current wind speed in m/s (hover to see current wind gust speed)